createdAt,value
2019-04-27T07:51:01.876Z,1011.86
2019-04-27T07:52:03.042Z,1006.92
2019-04-27T07:53:02.138Z,1006.92
2019-04-27T07:54:02.387Z,1006.92
2019-04-27T07:55:02.601Z,1006.92
2019-04-27T07:56:01.739Z,1007.03
2019-04-27T07:57:01.895Z,1007.03
2019-04-27T07:58:05.405Z,1007.03
2019-04-27T07:59:02.491Z,1007.03
2019-04-27T08:00:09.757Z,1006.96
2019-04-27T08:01:02.145Z,1006.96
2019-04-27T08:02:02.354Z,1006.96
2019-04-27T08:03:02.582Z,1006.96
2019-04-27T08:04:01.855Z,1006.86
2019-04-27T08:05:02.069Z,1006.86
2019-04-27T08:06:02.309Z,1006.86
2019-04-27T08:07:02.453Z,1006.86
2019-04-27T08:08:01.699Z,1006.74
2019-04-27T08:09:02.101Z,1006.74
2019-04-27T08:10:02.260Z,1006.74
2019-04-27T08:11:02.111Z,1006.88
2019-04-27T08:12:02.266Z,1006.88
2019-04-27T08:13:02.520Z,1006.88
2019-04-27T08:14:01.805Z,1006.88
2019-04-27T08:15:02.067Z,1006.84
2019-04-27T08:16:02.306Z,1006.84
2019-04-27T08:17:02.445Z,1006.84
2019-04-27T08:18:01.634Z,1006.84
2019-04-27T08:19:01.878Z,1007.21
2019-04-27T08:20:02.169Z,1007.21
2019-04-27T08:21:02.386Z,1007.21
2019-04-27T08:22:02.639Z,1007.21
2019-04-27T08:23:01.779Z,1007.05
2019-04-27T08:24:02.037Z,1007.05
2019-04-27T08:25:02.394Z,1007.05
2019-04-27T08:26:02.484Z,1007.05
2019-04-27T08:27:01.708Z,1007.12
2019-04-27T08:28:01.954Z,1007.12
2019-04-27T08:29:02.211Z,1007.12
2019-04-27T08:30:02.503Z,1007.12
2019-04-27T08:31:01.665Z,1007.11
2019-04-27T08:32:01.859Z,1007.11
2019-04-27T08:33:02.106Z,1007.11
2019-04-27T08:34:02.379Z,1007.11
2019-04-27T08:35:02.641Z,1007.26
2019-04-27T08:36:01.731Z,1007.26
2019-04-27T08:37:01.994Z,1007.26
2019-04-27T08:38:02.260Z,1007.26
2019-04-27T08:39:02.519Z,1007.24
2019-04-27T08:40:01.777Z,1007.24
2019-04-27T08:41:02.053Z,1007.24
2019-04-27T08:42:02.198Z,1007.24
2019-04-27T08:43:02.413Z,1007.23
2019-04-27T08:44:01.695Z,1007.23
2019-04-27T08:45:02.313Z,1007.23
2019-04-27T08:46:02.185Z,1007.23
2019-04-27T08:47:02.418Z,1007.24
2019-04-27T08:48:02.018Z,1007.24
2019-04-27T08:49:01.930Z,1007.24
2019-04-27T08:50:02.101Z,1007.24
2019-04-27T08:51:02.323Z,1007.24
2019-04-27T08:52:02.534Z,1007.24
2019-04-27T08:53:01.813Z,1007.24
2019-04-27T08:54:05.541Z,1007.24
2019-04-27T08:55:02.338Z,1007.3
2019-04-27T08:56:02.572Z,1007.3
2019-04-27T08:57:02.066Z,1007.3
2019-04-27T08:58:02.037Z,1007.3
2019-04-27T08:59:02.305Z,1007.3
2019-04-27T09:00:06.306Z,1007.3
2019-04-27T09:01:02.102Z,1007.3
2019-04-27T09:02:02.363Z,1007.3
2019-04-27T09:03:02.632Z,1007.35
2019-04-27T09:04:02.910Z,1007.35
2019-04-27T09:05:02.076Z,1007.35
2019-04-27T09:06:02.305Z,1007.35
2019-04-27T09:07:02.655Z,1007.32
2019-04-27T09:08:01.737Z,1007.32
2019-04-27T09:09:01.944Z,1007.32
2019-04-27T09:10:02.172Z,1007.32
2019-04-27T09:11:03.479Z,1007.34
2019-04-27T09:12:02.342Z,1007.34
2019-04-27T09:13:02.556Z,1007.34
2019-04-27T09:14:01.693Z,1007.34
2019-04-27T09:15:34.350Z,1007.33
2019-04-27T09:16:02.175Z,1007.33
2019-04-27T09:17:03.441Z,1007.33
2019-04-27T09:18:01.597Z,1007.33
2019-04-27T09:19:01.813Z,1007.37
2019-04-27T09:20:02.186Z,1007.37
2019-04-27T09:21:02.279Z,1007.37
2019-04-27T09:22:16.776Z,1007.37
2019-04-27T09:23:01.681Z,1007.41
2019-04-27T09:24:01.949Z,1007.41
2019-04-27T09:25:02.285Z,1007.41
2019-04-27T09:26:02.388Z,1007.41
2019-04-27T09:27:02.636Z,1007.36
2019-04-27T09:28:01.813Z,1007.36
2019-04-27T09:29:02.019Z,1007.36
2019-04-27T09:30:01.736Z,1007.36
2019-04-27T09:31:01.630Z,1007.49
2019-04-27T09:32:02.258Z,1007.49
2019-04-27T09:33:02.183Z,1007.49
2019-04-27T09:34:02.373Z,1007.49
2019-04-27T09:35:02.698Z,1007.61
2019-04-27T09:36:02.042Z,1007.61
2019-04-27T09:37:02.035Z,1007.61
2019-04-27T09:38:02.230Z,1007.61
2019-04-27T09:39:02.363Z,1007.45
2019-04-27T09:40:02.637Z,1007.45
2019-04-27T09:41:01.824Z,1007.45
2019-04-27T09:42:02.081Z,1007.45
2019-04-27T09:43:02.265Z,1007.41
2019-04-27T09:44:02.920Z,1007.41
2019-04-27T09:45:02.424Z,1007.41
2019-04-27T09:46:02.572Z,1007.41
2019-04-27T09:47:01.743Z,1007.38
2019-04-27T09:48:01.861Z,1007.38
2019-04-27T09:49:02.057Z,1007.38
2019-04-27T09:50:02.368Z,1007.38
2019-04-27T09:51:01.772Z,1007.34
2019-04-27T09:52:02.070Z,1007.34
2019-04-27T09:53:02.689Z,1007.34
2019-04-27T09:54:01.766Z,1007.4
2019-04-27T09:55:02.168Z,1007.4
2019-04-27T09:56:01.934Z,1007.4
2019-04-27T09:57:02.238Z,1007.4
2019-04-27T09:58:02.501Z,1007.5
2019-04-27T09:59:01.732Z,1007.5
2019-04-27T10:00:06.722Z,1007.5
2019-04-27T10:01:02.446Z,1007.5
2019-04-27T10:02:01.750Z,1007.55
2019-04-27T10:03:01.912Z,1007.55
2019-04-27T10:04:02.090Z,1007.55
2019-04-27T10:05:02.388Z,1007.55
2019-04-27T10:06:02.574Z,1007.41
2019-04-27T10:07:01.795Z,1007.41
2019-04-27T10:08:01.982Z,1007.41
2019-04-27T10:09:02.321Z,1007.41
2019-04-27T10:10:02.584Z,1007.5
2019-04-27T10:11:01.722Z,1007.5
2019-04-27T10:12:01.974Z,1007.5
2019-04-27T10:13:02.235Z,1007.5
2019-04-27T10:14:02.394Z,1007.54
2019-04-27T10:15:02.654Z,1007.54
2019-04-27T10:16:01.848Z,1007.54
2019-04-27T10:17:02.090Z,1007.54
2019-04-27T10:18:02.347Z,1007.56
2019-04-27T10:19:02.553Z,1007.56
2019-04-27T10:20:01.737Z,1007.56
2019-04-27T10:21:02.619Z,1007.56
2019-04-27T10:22:02.338Z,1007.48
2019-04-27T10:23:02.526Z,1007.48
2019-04-27T10:24:02.661Z,1007.48
2019-04-27T10:25:01.815Z,1007.48
2019-04-27T10:26:02.068Z,1007.54
2019-04-27T10:27:02.223Z,1007.54
2019-04-27T10:28:02.514Z,1007.54
2019-04-27T10:29:01.723Z,1007.54
2019-04-27T10:30:01.933Z,1007.51
2019-04-27T10:31:02.142Z,1007.51
2019-04-27T10:32:02.253Z,1007.51
2019-04-27T10:33:02.437Z,1007.51
2019-04-27T10:34:02.558Z,1007.61
2019-04-27T10:35:01.832Z,1007.61
2019-04-27T10:36:02.084Z,1007.61
2019-04-27T10:37:02.258Z,1007.61
2019-04-27T10:38:02.755Z,1007.48
2019-04-27T10:39:01.749Z,1007.48
2019-04-27T10:40:01.976Z,1007.48
2019-04-27T10:41:02.186Z,1007.48
2019-04-27T10:42:02.373Z,1007.53
2019-04-27T10:43:01.666Z,1007.53
2019-04-27T10:44:01.918Z,1007.53
2019-04-27T10:45:02.211Z,1007.53
2019-04-27T10:46:02.369Z,1007.53
2019-04-27T10:47:02.598Z,1007.53
2019-04-27T10:48:01.914Z,1007.53
2019-04-27T10:49:01.959Z,1007.53
2019-04-27T10:50:02.374Z,1007.6
2019-04-27T10:51:02.501Z,1007.6
2019-04-27T10:52:01.748Z,1007.6
2019-04-27T10:53:01.985Z,1007.6
2019-04-27T10:54:02.226Z,1007.5
2019-04-27T10:55:02.508Z,1007.5
2019-04-27T10:56:01.733Z,1007.5
2019-04-27T10:57:01.953Z,1007.5
2019-04-27T10:58:02.520Z,1007.69
2019-04-27T10:59:02.339Z,1007.69
2019-04-27T11:00:07.102Z,1007.69
2019-04-27T11:01:02.513Z,1007.69
2019-04-27T11:02:02.148Z,1007.61
2019-04-27T11:03:01.908Z,1007.61
2019-04-27T11:04:02.105Z,1007.61
2019-04-27T11:05:02.464Z,1007.61
2019-04-27T11:06:02.557Z,1007.6
2019-04-27T11:07:01.794Z,1007.6
2019-04-27T11:08:02.039Z,1007.6
2019-04-27T11:09:02.243Z,1007.6
2019-04-27T11:10:02.512Z,1007.67
2019-04-27T11:11:01.752Z,1007.67
2019-04-27T11:12:01.940Z,1007.67
2019-04-27T11:13:02.142Z,1007.67
2019-04-27T11:14:02.385Z,1007.74
2019-04-27T11:15:02.713Z,1007.74
2019-04-27T11:16:01.930Z,1007.74
2019-04-27T11:17:02.154Z,1007.74
2019-04-27T11:18:02.370Z,1007.69
2019-04-27T11:19:02.352Z,1007.69
2019-04-27T11:20:03.165Z,1007.69
2019-04-27T11:21:01.790Z,1007.69
2019-04-27T11:22:02.796Z,1007.72
2019-04-27T11:23:12.598Z,1007.72
2019-04-27T11:24:02.174Z,1007.72
2019-04-27T11:25:02.639Z,1007.72
2019-04-27T11:26:07.432Z,1007.61
2019-04-27T11:27:01.712Z,1007.61
2019-04-27T11:28:01.974Z,1007.61
2019-04-27T11:29:02.070Z,1007.61
2019-04-27T11:30:02.384Z,1007.8
2019-04-27T11:31:02.608Z,1007.8
2019-04-27T11:32:01.739Z,1007.8
2019-04-27T11:33:01.928Z,1007.8
2019-04-27T11:34:02.113Z,1007.94
2019-04-27T11:35:02.447Z,1007.94
2019-04-27T11:36:01.725Z,1007.94
2019-04-27T11:37:01.834Z,1007.81
2019-04-27T11:38:02.065Z,1007.81
2019-04-27T11:39:02.214Z,1007.81
2019-04-27T11:40:02.524Z,1007.81
2019-04-27T11:41:02.110Z,1007.81
2019-04-27T11:42:02.061Z,1007.81
2019-04-27T11:43:02.359Z,1007.81
2019-04-27T11:44:02.626Z,1007.81
2019-04-27T11:45:02.884Z,1008.06
2019-04-27T11:46:02.114Z,1008.06
2019-04-27T11:47:02.103Z,1008.06
2019-04-27T11:48:02.278Z,1008.06
2019-04-27T11:49:02.503Z,1008.21
2019-04-27T11:50:02.487Z,1008.21
2019-04-27T11:51:01.707Z,1008.21
2019-04-27T11:52:01.912Z,1008.21
2019-04-27T11:53:02.157Z,1008.26
2019-04-27T11:54:02.345Z,1008.26
2019-04-27T11:55:02.603Z,1008.26
2019-04-27T11:56:01.869Z,1008.26
2019-04-27T11:57:02.046Z,1008.13
2019-04-27T11:58:02.316Z,1008.13
2019-04-27T11:59:02.489Z,1008.13
2019-04-27T12:00:07.730Z,1008.13
2019-04-27T12:01:01.999Z,1008.13
2019-04-27T12:02:02.170Z,1008.13
2019-04-27T12:03:02.490Z,1008.13
2019-04-27T12:04:02.200Z,1008.13
2019-04-27T12:05:02.452Z,1008.37
2019-04-27T12:06:02.641Z,1008.37
2019-04-27T12:07:01.855Z,1008.37
2019-04-27T12:08:02.139Z,1008.37
2019-04-27T12:09:02.278Z,1008.29
2019-04-27T12:10:02.561Z,1008.29
2019-04-27T12:11:01.784Z,1008.29
2019-04-27T12:12:21.404Z,1008.29
2019-04-27T12:13:02.249Z,1008.22
2019-04-27T12:14:02.821Z,1008.22
2019-04-27T12:15:01.811Z,1008.22
2019-04-27T12:16:02.016Z,1008.22
2019-04-27T12:17:02.272Z,1008.26
2019-04-27T12:18:02.448Z,1008.26
2019-04-27T12:19:01.887Z,1008.26
2019-04-27T12:20:02.249Z,1008.26
2019-04-27T12:21:02.386Z,1008.17
2019-04-27T12:22:02.587Z,1008.17
2019-04-27T12:23:01.849Z,1008.17
2019-04-27T12:24:02.085Z,1008.17
2019-04-27T12:25:02.387Z,1008.18
2019-04-27T12:26:02.634Z,1008.18
2019-04-27T12:27:01.762Z,1008.18
2019-04-27T12:28:01.992Z,1008.18
2019-04-27T12:29:02.217Z,1008.2
2019-04-27T12:30:02.490Z,1008.2
2019-04-27T12:31:01.818Z,1008.2
2019-04-27T12:32:01.842Z,1008.2
2019-04-27T12:33:02.189Z,1008.37
2019-04-27T12:34:02.285Z,1008.37
2019-04-27T12:35:03.601Z,1008.37
2019-04-27T12:36:01.760Z,1008.37
2019-04-27T12:37:02.014Z,1008.45
2019-04-27T12:38:02.227Z,1008.45
2019-04-27T12:39:02.455Z,1008.45
2019-04-27T12:40:01.651Z,1008.45
2019-04-27T12:41:01.974Z,1008.44
2019-04-27T12:42:02.093Z,1008.44
2019-04-27T12:43:02.312Z,1008.44
2019-04-27T12:44:02.232Z,1008.44
2019-04-27T12:45:02.594Z,1008.57
2019-04-27T12:46:01.821Z,1008.57
2019-04-27T12:47:03.123Z,1008.57
2019-04-27T12:48:02.289Z,1008.57
2019-04-27T12:49:02.521Z,1008.46
2019-04-27T12:50:01.693Z,1008.46
2019-04-27T12:51:01.977Z,1008.46
2019-04-27T12:52:02.154Z,1008.46
2019-04-27T12:53:02.362Z,1008.45
2019-04-27T12:54:02.556Z,1008.45
2019-04-27T12:55:01.935Z,1008.45
2019-04-27T12:56:02.482Z,1008.45
2019-04-27T12:57:02.058Z,1008.48
2019-04-27T12:58:02.094Z,1008.48
2019-04-27T12:59:02.253Z,1008.48
2019-04-27T13:00:06.825Z,1008.48
2019-04-27T13:01:02.619Z,1008.47
2019-04-27T13:02:01.858Z,1008.47
2019-04-27T13:03:01.990Z,1008.47
2019-04-27T13:04:02.229Z,1008.47
2019-04-27T13:05:02.479Z,1008.49
2019-04-27T13:06:01.753Z,1008.49
2019-04-27T13:07:01.926Z,1008.49
2019-04-27T13:08:02.086Z,1008.49
2019-04-27T13:09:03.476Z,1008.44
2019-04-27T13:10:02.589Z,1008.44
2019-04-27T13:11:01.799Z,1008.44
2019-04-27T13:12:02.138Z,1008.44
2019-04-27T13:13:02.248Z,1008.55
2019-04-27T13:14:02.246Z,1008.55
2019-04-27T13:15:02.520Z,1008.55
2019-04-27T13:16:01.746Z,1008.55
2019-04-27T13:17:02.021Z,1008.46
2019-04-27T13:18:02.267Z,1008.46
2019-04-27T13:19:02.555Z,1008.46
2019-04-27T13:20:02.780Z,1008.41
2019-04-27T13:21:02.044Z,1008.41
2019-04-27T13:22:03.255Z,1008.41
2019-04-27T13:23:02.155Z,1008.41
2019-04-27T13:24:07.345Z,1008.63
2019-04-27T13:25:02.683Z,1008.63
2019-04-27T13:26:01.886Z,1008.63
2019-04-27T13:27:02.122Z,1008.63
2019-04-27T13:28:02.295Z,1008.5
2019-04-27T13:29:02.511Z,1008.5
2019-04-27T13:30:04.675Z,1008.5
2019-04-27T13:31:02.001Z,1008.5
2019-04-27T13:32:02.249Z,1008.55
2019-04-27T13:33:02.416Z,1008.55
2019-04-27T13:34:03.104Z,1008.55
2019-04-27T13:35:02.163Z,1008.55
2019-04-27T13:36:02.186Z,1008.6
2019-04-27T13:37:02.289Z,1008.6
2019-04-27T13:38:02.513Z,1008.6
2019-04-27T13:39:01.750Z,1008.6
2019-04-27T13:40:09.911Z,1008.58
2019-04-27T13:41:02.583Z,1008.58
2019-04-27T13:42:02.411Z,1008.58
2019-04-27T13:43:01.641Z,1008.58
2019-04-27T13:44:01.940Z,1008.56
2019-04-27T13:45:02.511Z,1008.56
2019-04-27T13:46:02.451Z,1008.56
2019-04-27T13:47:02.605Z,1008.56
2019-04-27T13:48:01.856Z,1008.55
2019-04-27T13:49:02.044Z,1008.55
2019-04-27T13:50:02.263Z,1008.55
2019-04-27T13:51:02.444Z,1008.55
2019-04-27T13:52:01.704Z,1008.45
2019-04-27T13:53:02.000Z,1008.45
2019-04-27T13:54:25.479Z,1008.45
2019-04-27T13:55:02.503Z,1008.45
2019-04-27T13:56:01.811Z,1008.56
2019-04-27T13:57:01.959Z,1008.56
2019-04-27T13:58:02.201Z,1008.56
2019-04-27T13:59:07.643Z,1008.56
2019-04-27T14:00:04.525Z,1008.73
2019-04-27T14:01:02.343Z,1008.73
2019-04-27T14:02:02.607Z,1008.73
2019-04-27T14:03:02.143Z,1008.73
2019-04-27T14:04:02.047Z,1008.83
2019-04-27T14:05:02.275Z,1008.83
2019-04-27T14:06:02.407Z,1008.83
2019-04-27T14:07:01.660Z,1008.83
2019-04-27T14:08:01.904Z,1008.84
2019-04-27T14:09:02.086Z,1008.84
2019-04-27T14:10:02.299Z,1008.84
2019-04-27T14:11:03.557Z,1008.84
2019-04-27T14:12:01.764Z,1008.74
2019-04-27T14:13:01.967Z,1008.74
2019-04-27T14:14:02.182Z,1008.74
2019-04-27T14:15:02.445Z,1008.74
2019-04-27T14:16:02.602Z,1008.69
2019-04-27T14:17:01.825Z,1008.69
2019-04-27T14:18:01.990Z,1008.69
2019-04-27T14:19:02.160Z,1008.69
2019-04-27T14:20:02.171Z,1008.7
2019-04-27T14:21:02.217Z,1008.7
2019-04-27T14:22:02.354Z,1008.7
2019-04-27T14:23:03.927Z,1008.7
2019-04-27T14:24:02.419Z,1008.74
2019-04-27T14:25:01.812Z,1008.74
2019-04-27T14:26:01.902Z,1008.74
2019-04-27T14:27:02.060Z,1008.74
2019-04-27T14:28:02.279Z,1008.64
2019-04-27T14:29:02.455Z,1008.64
2019-04-27T14:30:01.747Z,1008.64
2019-04-27T14:31:02.094Z,1008.64
2019-04-27T14:32:01.933Z,1008.67
2019-04-27T14:33:02.167Z,1008.67
2019-04-27T14:34:02.352Z,1008.67
2019-04-27T14:35:02.598Z,1008.67
2019-04-27T14:36:01.781Z,1008.7
2019-04-27T14:37:01.951Z,1008.7
2019-04-27T14:38:02.163Z,1008.7
2019-04-27T14:39:02.476Z,1008.7
2019-04-27T14:40:02.606Z,1009.04
2019-04-27T14:41:01.938Z,1009.04
2019-04-27T14:42:03.205Z,1009.04
2019-04-27T14:43:02.358Z,1009.04
2019-04-27T14:44:10.701Z,1008.99
2019-04-27T14:45:01.822Z,1008.99
2019-04-27T14:46:02.047Z,1008.99
2019-04-27T14:47:02.246Z,1008.99
2019-04-27T14:48:02.420Z,1009
2019-04-27T14:49:01.632Z,1009
2019-04-27T14:50:02.066Z,1009
2019-04-27T14:51:02.035Z,1009
2019-04-27T14:52:02.233Z,1008.93
2019-04-27T14:53:03.507Z,1008.93
2019-04-27T14:54:02.555Z,1008.93
2019-04-27T14:55:01.765Z,1008.93
2019-04-27T14:56:01.785Z,1008.97
2019-04-27T14:57:01.900Z,1008.97
2019-04-27T14:58:02.129Z,1008.97
2019-04-27T14:59:02.288Z,1008.97
2019-04-27T15:00:02.567Z,1009
2019-04-27T15:01:01.716Z,1009
2019-04-27T15:02:01.920Z,1009
2019-04-27T15:03:02.294Z,1008.96
2019-04-27T15:04:02.372Z,1008.96
2019-04-27T15:05:01.733Z,1008.96
2019-04-27T15:06:01.950Z,1008.96
2019-04-27T15:07:04.029Z,1009.08
2019-04-27T15:08:09.855Z,1009.08
2019-04-27T15:09:02.041Z,1009.08
2019-04-27T15:10:02.267Z,1009.08
2019-04-27T15:11:04.177Z,1009.2
2019-04-27T15:12:01.704Z,1009.2
2019-04-27T15:13:08.278Z,1009.2
2019-04-27T15:14:04.546Z,1009.2
2019-04-27T15:15:02.472Z,1009.18
2019-04-27T15:16:08.035Z,1009.18
2019-04-27T15:17:01.933Z,1009.18
2019-04-27T15:18:05.861Z,1009.18
2019-04-27T15:19:02.972Z,1009.17
2019-04-27T15:20:02.639Z,1009.17
2019-04-27T15:21:03.912Z,1009.17
2019-04-27T15:22:02.213Z,1009.17
2019-04-27T15:23:02.458Z,1009.11
2019-04-27T15:24:13.551Z,1009.11
2019-04-27T15:25:15.754Z,1009.11
2019-04-27T15:26:02.141Z,1009.11
2019-04-27T15:27:02.645Z,1009.17
2019-04-27T15:28:02.434Z,1009.17
2019-04-27T15:29:01.729Z,1009.17
2019-04-27T15:30:11.385Z,1009.17
2019-04-27T15:31:02.212Z,1009.21
2019-04-27T15:32:04.580Z,1009.21
2019-04-27T15:33:02.664Z,1009.21
2019-04-27T15:34:02.049Z,1009.21
2019-04-27T15:35:09.574Z,1009.35
2019-04-27T15:36:02.463Z,1009.35
2019-04-27T15:37:02.615Z,1009.35
2019-04-27T15:38:13.626Z,1009.35
2019-04-27T15:39:02.166Z,1009.33
2019-04-27T15:40:12.579Z,1009.33
2019-04-27T15:41:02.622Z,1009.33
2019-04-27T15:42:09.876Z,1009.33
2019-04-27T15:43:01.981Z,1009.32
2019-04-27T15:44:09.299Z,1009.32
2019-04-27T15:45:02.495Z,1009.32
2019-04-27T15:46:02.325Z,1009.32
2019-04-27T15:47:10.931Z,1009.4
2019-04-27T15:48:01.800Z,1009.4
2019-04-27T15:49:10.448Z,1009.4
2019-04-27T15:50:01.848Z,1009.4
2019-04-27T15:51:17.405Z,1009.41
2019-04-27T15:52:05.016Z,1009.41
2019-04-27T15:53:12.312Z,1009.41
2019-04-27T15:54:02.421Z,1009.41
2019-04-27T15:55:17.810Z,1009.42
2019-04-27T15:56:02.413Z,1009.42
2019-04-27T15:57:05.832Z,1009.42
2019-04-27T15:58:01.963Z,1009.42
2019-04-27T15:59:02.072Z,1009.49
2019-04-27T16:00:04.218Z,1009.49
2019-04-27T16:01:11.258Z,1009.49
2019-04-27T16:02:14.210Z,1009.49
2019-04-27T16:03:02.207Z,1009.5
2019-04-27T16:04:10.883Z,1009.5
2019-04-27T16:05:02.617Z,1009.5
2019-04-27T16:06:11.539Z,1009.5
2019-04-27T16:07:01.932Z,1009.64
2019-04-27T16:08:15.668Z,1009.64
2019-04-27T16:09:02.424Z,1009.64
2019-04-27T16:10:03.089Z,1009.64
2019-04-27T16:11:01.868Z,1009.58
2019-04-27T16:12:13.044Z,1009.58
2019-04-27T16:13:10.790Z,1009.58
2019-04-27T16:14:06.932Z,1009.58
2019-04-27T16:15:05.542Z,1009.69
2019-04-27T16:16:01.811Z,1009.69
2019-04-27T16:17:11.316Z,1009.69
2019-04-27T16:18:02.115Z,1009.69
2019-04-27T16:19:11.400Z,1009.69
2019-04-27T16:20:01.806Z,1009.69
2019-04-27T16:21:08.938Z,1009.69
2019-04-27T16:22:02.168Z,1009.69
2019-04-27T16:23:04.474Z,1009.69
2019-04-27T16:24:02.544Z,1009.69
2019-04-27T16:25:04.252Z,1009.69
2019-04-27T16:26:15.048Z,1009.69
2019-04-27T16:27:02.470Z,1009.69
2019-04-27T16:28:13.122Z,1009.69
2019-04-27T16:29:01.898Z,1009.69
2019-04-27T16:30:17.661Z,1009.69
2019-04-27T16:31:02.320Z,1009.72
2019-04-27T16:32:11.223Z,1009.72
2019-04-27T16:33:01.711Z,1009.72
2019-04-27T16:34:03.239Z,1009.72
2019-04-27T16:35:02.213Z,1009.75
2019-04-27T16:36:09.250Z,1009.75
2019-04-27T16:37:02.645Z,1009.75
2019-04-27T16:38:01.807Z,1009.75
2019-04-27T16:39:09.903Z,1009.82
2019-04-27T16:40:02.322Z,1009.82
2019-04-27T16:41:03.889Z,1009.82
2019-04-27T16:42:01.741Z,1009.82
2019-04-27T16:43:02.041Z,1009.85
2019-04-27T16:44:09.494Z,1009.85
2019-04-27T16:45:01.836Z,1009.85
2019-04-27T16:46:05.664Z,1009.95
2019-04-27T16:47:02.402Z,1009.95
2019-04-27T16:48:02.665Z,1009.95
2019-04-27T16:49:02.200Z,1009.95
2019-04-27T16:50:02.554Z,1009.91
2019-04-27T16:51:02.445Z,1009.91
2019-04-27T16:52:01.645Z,1009.91
2019-04-27T16:53:02.138Z,1009.91
2019-04-27T16:54:03.259Z,1009.99
2019-04-27T16:55:02.476Z,1009.99
2019-04-27T16:56:06.240Z,1009.99
2019-04-27T16:57:05.693Z,1009.99
2019-04-27T16:58:02.156Z,1009.95
2019-04-27T17:00:08.747Z,1009.95
2019-04-27T17:01:10.467Z,1009.95
2019-04-27T17:01:10.694Z,1009.95
2019-04-27T17:02:02.538Z,1010
2019-04-27T17:03:06.685Z,1010
2019-04-27T17:04:02.087Z,1010
2019-04-27T17:05:02.293Z,1010
2019-04-27T17:06:08.894Z,1010.03
2019-04-27T17:07:02.021Z,1010.03
2019-04-27T17:08:01.993Z,1010.03
2019-04-27T17:09:09.838Z,1010.03
2019-04-27T17:10:02.393Z,1009.89
2019-04-27T17:11:13.871Z,1009.89
2019-04-27T17:12:02.367Z,1009.89
2019-04-27T17:13:13.713Z,1009.89
2019-04-27T17:14:02.834Z,1010.14
2019-04-27T17:15:13.576Z,1010.14
2019-04-27T17:16:01.953Z,1010.14
2019-04-27T17:17:11.712Z,1010.14
2019-04-27T17:18:02.129Z,1010.11
2019-04-27T17:19:06.433Z,1010.11
2019-04-27T17:20:02.538Z,1010.11
2019-04-27T17:21:21.150Z,1010.11
2019-04-27T17:22:01.919Z,1010.1
2019-04-27T17:23:02.120Z,1010.1
2019-04-27T17:24:04.240Z,1010.1
2019-04-27T17:25:02.571Z,1010.1
2019-04-27T17:26:21.698Z,1010.16
2019-04-27T17:27:01.964Z,1010.16
2019-04-27T17:28:05.377Z,1010.16
2019-04-27T17:29:02.364Z,1010.16
2019-04-27T17:30:02.524Z,1010.13
2019-04-27T17:31:01.883Z,1010.13
2019-04-27T17:32:01.967Z,1010.13
2019-04-27T17:33:15.207Z,1010.13
2019-04-27T17:34:02.460Z,1010.28
2019-04-27T17:35:08.825Z,1010.28
2019-04-27T17:36:03.617Z,1010.28
2019-04-27T17:37:02.432Z,1010.28
2019-04-27T17:38:12.222Z,1010.11
2019-04-27T17:39:01.919Z,1010.11
2019-04-27T17:40:02.139Z,1010.11
2019-04-27T17:41:12.447Z,1010.11
2019-04-27T17:42:01.735Z,1010.3
2019-04-27T17:43:10.483Z,1010.3
2019-04-27T17:44:02.177Z,1010.3
2019-04-27T17:45:02.780Z,1010.3
2019-04-27T17:46:02.236Z,1010.28
2019-04-27T17:47:02.560Z,1010.28
2019-04-27T17:48:11.219Z,1010.28
2019-04-27T17:49:01.875Z,1010.28
2019-04-27T17:50:02.449Z,1010.29
2019-04-27T17:51:03.969Z,1010.29
2019-04-27T17:52:02.119Z,1010.29
2019-04-27T17:53:02.342Z,1010.29
2019-04-27T17:54:11.125Z,1010.32
2019-04-27T17:55:01.912Z,1010.32
2019-04-27T17:56:08.387Z,1010.32
2019-04-27T17:57:02.411Z,1010.32
2019-04-27T17:58:06.770Z,1010.34
2019-04-27T17:59:01.867Z,1010.34
2019-04-27T18:00:04.132Z,1010.34
2019-04-27T18:01:01.734Z,1010.34
2019-04-27T18:02:05.079Z,1010.45
2019-04-27T18:03:02.147Z,1010.45
2019-04-27T18:04:06.451Z,1010.45
2019-04-27T18:05:01.970Z,1010.45
2019-04-27T18:06:01.861Z,1010.36
2019-04-27T18:07:03.789Z,1010.36
2019-04-27T18:08:02.381Z,1010.36
2019-04-27T18:09:03.942Z,1010.36
2019-04-27T18:10:01.903Z,1010.47
2019-04-27T18:11:05.540Z,1010.47
2019-04-27T18:12:02.283Z,1010.47
2019-04-27T18:13:02.489Z,1010.47
2019-04-27T18:14:02.066Z,1010.53
2019-04-27T18:15:01.944Z,1010.53
2019-04-27T18:16:02.181Z,1010.53
2019-04-27T18:17:11.929Z,1010.53
2019-04-27T18:18:02.550Z,1010.46
2019-04-27T18:19:11.858Z,1010.46
2019-04-27T18:20:02.020Z,1010.46
2019-04-27T18:21:02.260Z,1010.46
2019-04-27T18:22:02.522Z,1010.53
2019-04-27T18:23:01.748Z,1010.53
2019-04-27T18:24:01.960Z,1010.53
2019-04-27T18:25:09.403Z,1010.53
2019-04-27T18:26:02.426Z,1010.53
2019-04-27T18:27:04.759Z,1010.53
2019-04-27T18:28:02.372Z,1010.53
2019-04-27T18:29:02.573Z,1010.66
2019-04-27T18:30:04.600Z,1010.66
2019-04-27T18:31:01.934Z,1010.66
2019-04-27T18:32:02.267Z,1010.66
2019-04-27T18:33:02.603Z,1010.63
2019-04-27T18:34:02.555Z,1010.63
2019-04-27T18:35:01.854Z,1010.63
2019-04-27T18:36:13.839Z,1010.63
2019-04-27T18:37:04.724Z,1010.61
2019-04-27T18:38:02.424Z,1010.61
2019-04-27T18:39:12.750Z,1010.61
2019-04-27T18:40:01.840Z,1010.61
2019-04-27T18:41:10.640Z,1010.57
2019-04-27T18:42:02.213Z,1010.57
2019-04-27T18:43:12.032Z,1010.57
2019-04-27T18:44:02.680Z,1010.57
2019-04-27T18:45:08.545Z,1010.62
2019-04-27T18:46:02.113Z,1010.62
2019-04-27T18:47:02.846Z,1010.62
2019-04-27T18:48:02.487Z,1010.62
2019-04-27T18:49:01.719Z,1010.62
2019-04-27T18:50:14.984Z,1010.62
2019-04-27T18:51:02.122Z,1010.62
2019-04-27T18:52:06.647Z,1010.62
2019-04-27T18:53:02.586Z,1010.61
2019-04-27T18:54:04.061Z,1010.61
2019-04-27T18:55:02.248Z,1010.61
2019-04-27T18:56:05.834Z,1010.61
2019-04-27T18:57:05.062Z,1010.67
2019-04-27T18:58:02.459Z,1010.67
2019-04-27T18:59:02.069Z,1010.67
2019-04-27T19:00:05.445Z,1010.67
2019-04-27T19:01:02.110Z,1010.67
2019-04-27T19:02:02.402Z,1010.67
2019-04-27T19:03:02.602Z,1010.67
2019-04-27T19:04:01.859Z,1010.67
2019-04-27T19:05:02.122Z,1010.75
2019-04-27T19:06:02.389Z,1010.75
2019-04-27T19:07:02.506Z,1010.75
2019-04-27T19:08:01.679Z,1010.75
2019-04-27T19:09:02.336Z,1010.85
2019-04-27T19:10:01.752Z,1010.85
2019-04-27T19:11:05.341Z,1010.85
2019-04-27T19:12:02.217Z,1010.85
2019-04-27T19:13:02.023Z,1011.02
2019-04-27T19:14:02.269Z,1011.02
2019-04-27T19:15:02.188Z,1011.02
2019-04-27T19:16:02.412Z,1011.02
2019-04-27T19:17:02.630Z,1010.99
2019-04-27T19:18:01.908Z,1010.99
2019-04-27T19:19:02.157Z,1010.99
2019-04-27T19:20:02.293Z,1010.99
2019-04-27T19:21:02.515Z,1011.07
2019-04-27T19:22:01.819Z,1011.07
2019-04-27T19:23:02.000Z,1011.07
2019-04-27T19:24:02.180Z,1011.07
2019-04-27T19:25:02.456Z,1011.12
2019-04-27T19:26:01.680Z,1011.12
2019-04-27T19:27:19.093Z,1011.12
2019-04-27T19:28:02.132Z,1011.12
2019-04-27T19:29:02.324Z,1011.05
2019-04-27T19:30:01.700Z,1011.05
2019-04-27T19:31:01.883Z,1011.05
2019-04-27T19:32:02.199Z,1011.05
2019-04-27T19:33:02.331Z,1011.09
2019-04-27T19:34:01.648Z,1011.09
2019-04-27T19:35:01.825Z,1011.09
2019-04-27T19:36:02.462Z,1011.09
2019-04-27T19:37:01.756Z,1011.31
2019-04-27T19:38:02.024Z,1011.31
2019-04-27T19:39:02.107Z,1011.31
2019-04-27T19:40:02.426Z,1011.31
2019-04-27T19:41:02.632Z,1011.11
2019-04-27T19:42:04.212Z,1011.11
2019-04-27T19:43:02.085Z,1011.11
2019-04-27T19:44:02.208Z,1011.11
2019-04-27T19:45:02.534Z,1011.19
2019-04-27T19:46:01.690Z,1011.19
2019-04-27T19:47:01.871Z,1011.19
2019-04-27T19:48:02.209Z,1011.19
2019-04-27T19:49:02.293Z,1011.22
2019-04-27T19:50:02.559Z,1011.22
2019-04-27T19:51:01.765Z,1011.22
2019-04-27T19:52:02.067Z,1011.22
2019-04-27T19:53:02.271Z,1011.16
2019-04-27T19:54:02.460Z,1011.16
2019-04-27T19:55:01.723Z,1011.16
2019-04-27T19:56:01.975Z,1011.16
2019-04-27T19:57:02.191Z,1011.25
2019-04-27T19:58:02.481Z,1011.25
2019-04-27T19:59:02.552Z,1011.25
2019-04-27T20:00:05.511Z,1011.25